createdAt,value
2022-11-01T16:13:13.324Z,10.92
2022-11-01T16:14:11.611Z,10.40
2022-11-01T16:15:11.602Z,9.83
2022-11-01T16:16:11.566Z,9.31
2022-11-01T16:17:11.620Z,8.87
2022-11-01T16:18:11.541Z,8.30
2022-11-01T16:19:11.697Z,7.58
2022-11-01T16:20:11.564Z,7.09
2022-11-01T16:21:11.490Z,6.37
2022-11-01T16:22:11.527Z,5.78
2022-11-01T16:23:11.480Z,5.11
2022-11-01T16:24:11.573Z,4.32
2022-11-01T16:25:11.456Z,3.85
2022-11-01T16:26:11.469Z,3.21
2022-11-01T16:27:11.446Z,2.72
2022-11-01T16:28:11.396Z,2.30
2022-11-01T16:29:11.426Z,1.85
2022-11-01T16:30:11.407Z,1.53
2022-11-01T16:31:11.386Z,1.36
2022-11-01T16:32:11.416Z,1.14
2022-11-01T16:33:11.352Z,0.84
2022-11-01T16:34:11.328Z,0.84
2022-11-01T16:35:11.326Z,0.84
2022-11-01T16:36:11.363Z,0.59
2022-11-01T16:37:11.347Z,0.44
2022-11-01T16:38:11.295Z,0.35
2022-11-01T16:39:11.284Z,0.52
2022-11-01T16:40:11.244Z,0.22
2022-11-01T16:41:11.274Z,0.30
2022-11-01T16:42:11.283Z,0.25
2022-11-01T16:43:11.261Z,0.12
2022-11-01T16:44:11.254Z,0.22
2022-11-01T16:45:11.193Z,0.20
2022-11-01T16:46:11.170Z,0.17
2022-11-01T16:47:11.201Z,0.05
2022-11-01T16:48:11.232Z,0.02
2022-11-01T16:49:11.144Z,0.12
2022-11-01T16:50:11.173Z,0.15
2022-11-01T16:51:11.123Z,0.00
2022-11-01T16:52:11.138Z,0.12
2022-11-01T16:53:11.091Z,0.10
2022-11-01T16:54:11.109Z,0.00
2022-11-01T16:55:11.066Z,0.00
2022-11-01T16:56:35.082Z,0.00
2022-11-01T16:57:12.070Z,0.07
2022-11-01T16:58:11.009Z,0.10
2022-11-01T16:59:11.033Z,0.10
2022-11-01T17:00:11.029Z,0.00
2022-11-01T17:01:11.198Z,0.00
2022-11-01T17:02:11.111Z,0.10
2022-11-01T17:03:11.077Z,0.10
2022-11-01T17:04:11.000Z,0.15
2022-11-01T17:05:11.038Z,0.00
2022-11-01T17:06:10.951Z,0.07
2022-11-01T17:07:10.914Z,0.15
2022-11-01T17:08:10.929Z,0.00
2022-11-01T17:09:10.954Z,0.00
2022-11-01T17:10:10.991Z,0.07
2022-11-01T17:11:10.950Z,0.00
2022-11-01T17:12:10.855Z,0.10
2022-11-01T17:13:10.861Z,0.10
2022-11-01T17:14:10.858Z,0.10
2022-11-01T17:15:10.848Z,0.10
2022-11-01T17:16:10.794Z,0.00
2022-11-01T17:17:10.798Z,0.00
2022-11-01T17:18:10.764Z,0.25
2022-11-01T17:19:11.095Z,0.00
2022-11-01T17:20:10.724Z,0.10
2022-11-01T17:21:10.939Z,0.00
2022-11-01T17:22:10.727Z,0.10
2022-11-01T17:23:10.698Z,0.00
2022-11-01T17:24:10.694Z,0.07
2022-11-01T17:25:10.684Z,0.07
2022-11-01T17:26:10.694Z,0.00
2022-11-01T17:27:10.683Z,0.07
2022-11-01T17:28:10.635Z,0.00
2022-11-01T17:29:10.621Z,0.12
2022-11-01T17:30:10.639Z,0.00
2022-11-01T17:31:10.620Z,0.00
2022-11-01T17:32:10.580Z,0.10
2022-11-01T17:33:10.582Z,0.00
2022-11-01T17:34:10.568Z,0.07
2022-11-01T17:35:10.562Z,0.00
2022-11-01T17:36:10.644Z,0.17
2022-11-01T17:37:10.522Z,0.00
2022-11-01T17:38:10.508Z,0.00
2022-11-01T17:39:10.494Z,0.00
2022-11-01T17:40:10.487Z,0.07
2022-11-01T17:41:10.491Z,0.07
2022-11-01T17:42:10.495Z,0.10
2022-11-01T17:43:10.481Z,0.00
2022-11-01T17:44:10.474Z,0.00
2022-11-01T17:45:10.456Z,0.07
2022-11-01T17:46:10.455Z,0.10
2022-11-01T17:47:10.420Z,0.00
2022-11-01T17:48:10.426Z,0.07
2022-11-01T17:49:10.406Z,0.00
2022-11-01T17:50:10.432Z,0.10
2022-11-01T17:51:10.358Z,0.10
2022-11-01T17:52:10.381Z,0.07
2022-11-01T17:53:10.307Z,0.00
2022-11-01T17:54:10.636Z,0.00
2022-11-01T17:55:10.290Z,0.00
2022-11-01T17:56:10.265Z,0.07
2022-11-01T17:57:10.254Z,0.00
2022-11-01T17:58:10.283Z,0.10
2022-11-01T17:59:10.266Z,0.02
2022-11-01T18:00:10.233Z,0.07
2022-11-01T18:01:10.345Z,0.07
2022-11-01T18:02:10.288Z,0.00
2022-11-01T18:03:10.223Z,0.10
2022-11-01T18:04:10.162Z,0.02
2022-11-01T18:05:10.212Z,0.07
2022-11-01T18:06:10.136Z,0.00
2022-11-01T18:07:10.165Z,0.07
2022-11-01T18:08:10.150Z,0.00
2022-11-01T18:09:10.100Z,0.00
2022-11-01T18:10:10.090Z,0.07
2022-11-01T18:11:10.164Z,0.00
2022-11-01T18:12:10.084Z,0.10
2022-11-01T18:13:10.107Z,0.07
2022-11-01T18:14:10.069Z,0.25
2022-11-01T18:15:10.067Z,0.07
2022-11-01T18:16:10.090Z,0.00
2022-11-01T18:17:10.025Z,0.07
2022-11-01T18:18:10.616Z,0.07
2022-11-01T18:19:09.990Z,0.10
2022-11-01T18:20:10.022Z,0.00
2022-11-01T18:21:09.968Z,0.00
2022-11-01T18:22:09.945Z,0.10
2022-11-01T18:23:09.989Z,0.07
2022-11-01T18:24:14.211Z,0.00
2022-11-01T18:25:10.947Z,0.07
2022-11-01T18:26:09.910Z,0.07
2022-11-01T18:27:09.900Z,0.00
2022-11-01T18:28:09.864Z,0.07
2022-11-01T18:29:09.877Z,0.00
2022-11-01T18:30:09.881Z,0.07
2022-11-01T18:31:09.826Z,0.00
2022-11-01T18:32:09.809Z,0.00
2022-11-01T18:33:09.866Z,0.02
2022-11-01T18:34:09.781Z,0.07
2022-11-01T18:35:09.841Z,0.07
2022-11-01T18:36:09.783Z,0.07
2022-11-01T18:37:09.752Z,0.00
2022-11-01T18:38:09.775Z,0.00
2022-11-01T18:39:09.765Z,0.00
2022-11-01T18:40:09.714Z,0.00
2022-11-01T18:41:13.222Z,0.00
2022-11-01T18:42:09.735Z,0.10
2022-11-01T18:43:09.767Z,0.00
2022-11-01T18:44:09.663Z,0.10
2022-11-01T18:45:09.681Z,0.00
2022-11-01T18:46:24.679Z,0.00
2022-11-01T18:47:10.656Z,0.10
2022-11-01T18:48:09.682Z,0.00
2022-11-01T18:49:09.927Z,0.10
2022-11-01T18:50:15.494Z,0.12
2022-11-01T18:51:10.645Z,0.00
2022-11-01T18:52:09.562Z,0.10
2022-11-01T18:53:09.588Z,0.00
2022-11-01T18:54:09.583Z,0.00
2022-11-01T18:55:09.590Z,0.07
2022-11-01T18:56:09.511Z,0.10
2022-11-01T18:57:09.512Z,0.07
2022-11-01T18:58:09.542Z,0.12
2022-11-01T18:59:09.510Z,0.00
2022-11-01T19:00:09.481Z,0.00
2022-11-01T19:01:09.512Z,0.10
2022-11-01T19:02:09.514Z,0.02
2022-11-01T19:03:09.450Z,0.00
2022-11-01T19:04:09.421Z,0.07
2022-11-01T19:05:09.398Z,0.00
2022-11-01T19:06:09.377Z,0.00
2022-11-01T19:07:09.996Z,0.07
2022-11-01T19:08:11.433Z,0.07
2022-11-01T19:09:09.375Z,0.07
2022-11-01T19:10:09.358Z,0.10
2022-11-01T19:11:09.329Z,0.12
2022-11-01T19:12:09.315Z,0.07
2022-11-01T19:13:09.295Z,0.00
2022-11-01T19:14:09.304Z,0.25
2022-11-01T19:15:09.267Z,0.00
2022-11-01T19:16:09.321Z,0.10
2022-11-01T19:17:09.249Z,0.22
2022-11-01T19:18:09.263Z,0.10
2022-11-01T19:19:09.288Z,0.00
2022-11-01T19:20:09.214Z,0.00
2022-11-01T19:21:09.213Z,0.07
2022-11-01T19:22:09.184Z,0.00
2022-11-01T19:23:09.196Z,0.00
2022-11-01T19:24:10.233Z,0.15
2022-11-01T19:25:09.174Z,0.15
2022-11-01T19:26:09.143Z,0.00
2022-11-01T19:27:09.173Z,0.07
2022-11-01T19:28:09.131Z,0.07
2022-11-01T19:29:09.146Z,0.02
2022-11-01T19:30:09.070Z,0.07
2022-11-01T19:31:09.139Z,0.00
2022-11-01T19:32:09.060Z,0.00
2022-11-01T19:33:09.069Z,0.07
2022-11-01T19:34:09.079Z,0.10
2022-11-01T19:35:09.109Z,0.00
2022-11-01T19:36:09.039Z,0.10
2022-11-01T19:37:09.002Z,0.10
2022-11-01T19:38:08.988Z,0.00
2022-11-01T19:39:08.998Z,0.15
2022-11-01T19:40:08.983Z,0.12
2022-11-01T19:41:08.936Z,0.17
2022-11-01T19:42:08.964Z,0.00
2022-11-01T19:43:08.915Z,0.10
2022-11-01T19:44:08.927Z,0.07
2022-11-01T19:45:08.936Z,0.00
2022-11-01T19:46:08.895Z,0.07
2022-11-01T19:47:13.646Z,0.02
2022-11-01T19:48:09.845Z,0.12
2022-11-01T19:49:08.922Z,0.10
2022-11-01T19:50:08.825Z,0.00
2022-11-01T19:51:08.851Z,0.07
2022-11-01T19:52:08.826Z,0.00
2022-11-01T19:53:08.795Z,0.00
2022-11-01T19:54:08.804Z,0.10
2022-11-01T19:55:08.835Z,0.00
2022-11-01T19:56:08.811Z,0.22
2022-11-01T19:57:08.768Z,0.00
2022-11-01T19:58:08.724Z,0.12
2022-11-01T19:59:08.722Z,0.07
2022-11-01T20:00:08.802Z,0.00
2022-11-01T20:01:08.821Z,0.07
2022-11-01T20:02:10.333Z,0.07
2022-11-01T20:03:08.699Z,0.00
2022-11-01T20:04:08.641Z,0.00
2022-11-01T20:05:08.630Z,0.00
2022-11-01T20:06:08.649Z,0.00
2022-11-01T20:07:08.623Z,0.02
2022-11-01T20:08:08.619Z,0.07
2022-11-01T20:09:08.609Z,0.00
2022-11-01T20:10:08.620Z,0.07
2022-11-01T20:11:08.549Z,0.07
2022-11-01T20:12:08.571Z,0.00
2022-11-01T20:13:08.740Z,0.00
2022-11-01T20:14:08.571Z,0.00
2022-11-01T20:15:08.517Z,0.00
2022-11-01T20:16:08.524Z,0.00
2022-11-01T20:17:08.487Z,0.10
2022-11-01T20:18:08.909Z,0.07
2022-11-01T20:19:10.871Z,0.00
2022-11-01T20:20:08.446Z,0.05
2022-11-01T20:21:08.707Z,0.07
2022-11-01T20:22:08.476Z,0.00
2022-11-01T20:24:09.433Z,0.10
2022-11-01T20:25:08.377Z,0.00
2022-11-01T20:26:08.373Z,0.10
2022-11-01T20:27:08.364Z,0.10
2022-11-01T20:28:08.436Z,0.07
2022-11-01T20:29:08.344Z,0.10
2022-11-01T20:30:08.340Z,0.07
2022-11-01T20:31:08.325Z,0.07
2022-11-01T20:32:08.430Z,0.25
2022-11-01T20:33:08.281Z,0.10
2022-11-01T20:34:08.304Z,0.07
2022-11-01T20:35:08.251Z,0.10
2022-11-01T20:36:11.213Z,0.00
2022-11-01T20:37:27.594Z,0.00
2022-11-01T20:38:09.352Z,0.07
2022-11-01T20:39:10.480Z,0.00
2022-11-01T20:40:09.230Z,0.07
2022-11-01T20:41:08.247Z,0.10
2022-11-01T20:42:08.243Z,0.00
2022-11-01T20:43:08.179Z,0.07
2022-11-01T20:44:08.149Z,0.07
2022-11-01T20:45:08.157Z,0.07
2022-11-01T20:46:08.108Z,0.00
2022-11-01T20:47:08.099Z,0.07
2022-11-01T20:48:08.198Z,0.10
2022-11-01T20:49:08.111Z,0.07
2022-11-01T20:50:08.093Z,0.00
2022-11-01T20:51:08.054Z,0.07
2022-11-01T20:52:33.890Z,0.07
2022-11-01T20:53:09.078Z,0.07
2022-11-01T20:54:08.075Z,0.12
2022-11-01T20:55:08.053Z,0.00
2022-11-01T20:56:08.035Z,0.07
2022-11-01T20:57:15.630Z,0.07
2022-11-01T20:58:09.050Z,0.00
2022-11-01T20:59:07.975Z,0.00
2022-11-01T21:00:07.967Z,0.07
2022-11-01T21:01:08.081Z,0.00
2022-11-01T21:02:08.114Z,0.17
2022-11-01T21:03:07.922Z,0.22
2022-11-01T21:04:07.968Z,0.25
2022-11-01T21:05:07.865Z,0.07
2022-11-01T21:06:08.004Z,0.00
2022-11-01T21:07:07.894Z,0.10
2022-11-01T21:08:07.879Z,0.15
2022-11-01T21:09:07.854Z,0.02
2022-11-01T21:10:07.871Z,0.00
2022-11-01T21:11:07.886Z,0.05
2022-11-01T21:12:07.817Z,0.00
2022-11-01T21:13:07.764Z,0.00
2022-11-01T21:14:07.780Z,0.07
2022-11-01T21:15:07.779Z,0.00
2022-11-01T21:16:07.732Z,0.00
2022-11-01T21:17:07.741Z,0.00
2022-11-01T21:18:07.720Z,0.00
2022-11-01T21:19:07.742Z,0.02
2022-11-01T21:20:07.705Z,0.00
2022-11-01T21:21:07.720Z,0.07
2022-11-01T21:22:07.713Z,0.17
2022-11-01T21:23:07.637Z,0.00
2022-11-01T21:24:07.724Z,0.07
2022-11-01T21:25:07.648Z,0.17
2022-11-01T21:26:07.658Z,0.07
2022-11-01T21:27:07.624Z,0.00
2022-11-01T21:28:07.595Z,0.00
2022-11-01T21:29:07.582Z,0.05
2022-11-01T21:30:07.585Z,0.07
2022-11-01T21:31:07.610Z,0.00
2022-11-01T21:32:07.536Z,0.10
2022-11-01T21:33:07.587Z,0.00
2022-11-01T21:34:07.664Z,0.00
2022-11-01T21:35:07.503Z,0.00
2022-11-01T21:36:07.523Z,0.00
2022-11-01T21:37:07.463Z,0.00
2022-11-01T21:38:07.472Z,0.07
2022-11-01T21:39:07.461Z,0.00
2022-11-01T21:40:10.884Z,0.00
2022-11-01T21:41:08.411Z,0.10
2022-11-01T21:42:07.481Z,0.07
2022-11-01T21:43:07.391Z,0.00
2022-11-01T21:44:07.397Z,0.07
2022-11-01T21:45:07.370Z,0.00
2022-11-01T21:46:07.425Z,0.00
2022-11-01T21:47:07.370Z,0.07
2022-11-01T21:48:07.458Z,0.07
2022-11-01T21:49:07.336Z,0.00
2022-11-01T21:50:07.320Z,0.00
2022-11-01T21:51:07.312Z,0.00
2022-11-01T21:52:07.353Z,0.00
2022-11-01T21:53:07.333Z,0.22
2022-11-01T21:54:07.289Z,0.00
2022-11-01T21:55:07.333Z,0.12
2022-11-01T21:56:07.227Z,0.00
2022-11-01T21:57:07.253Z,0.07
2022-11-01T21:58:07.197Z,0.00
2022-11-01T21:59:07.198Z,0.10
2022-11-01T22:00:07.207Z,0.07
2022-11-01T22:01:07.317Z,0.07
2022-11-01T22:02:07.263Z,0.07
2022-11-01T22:03:07.391Z,0.10
2022-11-01T22:04:07.125Z,0.07
2022-11-01T22:05:07.174Z,0.17
2022-11-01T22:06:07.201Z,0.00
2022-11-01T22:07:07.082Z,0.00
2022-11-01T22:08:07.124Z,0.25
2022-11-01T22:09:07.055Z,0.10
2022-11-01T22:10:07.138Z,0.07
2022-11-01T22:11:07.033Z,0.07
2022-11-01T22:12:07.200Z,0.00
2022-11-01T22:13:08.197Z,0.00
2022-11-01T22:14:07.076Z,0.00
2022-11-01T22:15:06.991Z,0.00
2022-11-01T22:16:06.971Z,0.00
2022-11-01T22:17:06.981Z,0.10
2022-11-01T22:18:06.986Z,0.00
2022-11-01T22:19:06.929Z,0.10
2022-11-01T22:20:07.000Z,0.10
2022-11-01T22:21:06.969Z,0.00
2022-11-01T22:22:06.966Z,0.00
2022-11-01T22:23:07.143Z,0.10
2022-11-01T22:24:06.860Z,0.10
2022-11-01T22:25:06.871Z,0.00
2022-11-01T22:26:06.849Z,0.00
2022-11-01T22:27:06.847Z,0.12
2022-11-01T22:28:06.889Z,0.00
2022-11-01T22:29:06.800Z,0.10
2022-11-01T22:30:06.808Z,0.00
2022-11-01T22:31:06.786Z,0.00
2022-11-01T22:32:07.020Z,0.07
2022-11-01T22:33:07.016Z,0.00
2022-11-01T22:34:06.737Z,0.00
2022-11-01T22:35:06.717Z,0.00
2022-11-01T22:36:06.764Z,0.00
2022-11-01T22:37:06.719Z,0.00
2022-11-01T22:38:06.799Z,0.10
2022-11-01T22:39:06.688Z,0.05
2022-11-01T22:40:06.692Z,0.00
2022-11-01T22:41:06.655Z,0.07
2022-11-01T22:42:06.636Z,0.07
2022-11-01T22:43:06.861Z,0.00
2022-11-01T22:44:06.616Z,0.00
2022-11-01T22:45:06.698Z,0.02
2022-11-01T22:46:06.603Z,0.07
2022-11-01T22:47:06.590Z,0.07
2022-11-01T22:48:06.593Z,0.10
2022-11-01T22:49:06.650Z,0.20
2022-11-01T22:50:06.552Z,0.05
2022-11-01T22:51:06.526Z,0.02
2022-11-01T22:52:06.534Z,0.07
2022-11-01T22:53:06.739Z,0.00
2022-11-01T22:54:06.494Z,0.10
2022-11-01T22:55:06.751Z,0.25
2022-11-01T22:56:06.493Z,0.00
2022-11-01T22:57:06.483Z,0.00
2022-11-01T22:58:06.480Z,0.07
2022-11-01T22:59:06.409Z,0.00
2022-11-01T23:00:06.526Z,0.00
2022-11-01T23:01:06.447Z,0.00
2022-11-01T23:02:06.588Z,0.00
2022-11-01T23:03:06.789Z,0.00
2022-11-01T23:04:06.479Z,0.05
2022-11-01T23:05:06.351Z,0.00
2022-11-01T23:06:06.378Z,0.07
2022-11-01T23:07:06.328Z,0.02
2022-11-01T23:08:06.415Z,0.10
2022-11-01T23:09:06.296Z,0.17
2022-11-01T23:10:06.296Z,0.07
2022-11-01T23:11:06.285Z,0.00
2022-11-01T23:12:06.281Z,0.17
2022-11-01T23:13:06.649Z,0.10
2022-11-01T23:14:06.233Z,0.00
2022-11-01T23:15:06.264Z,0.07
2022-11-01T23:16:06.214Z,0.07
2022-11-01T23:17:06.219Z,0.07
2022-11-01T23:18:06.243Z,0.17
2022-11-01T23:19:06.173Z,0.07
2022-11-01T23:20:06.186Z,0.12
2022-11-01T23:21:06.154Z,0.10
2022-11-01T23:22:06.215Z,0.07
2022-11-01T23:23:06.521Z,0.07
2022-11-01T23:24:06.123Z,0.07
2022-11-01T23:25:06.126Z,0.02
2022-11-01T23:26:06.093Z,0.07
2022-11-01T23:27:06.103Z,0.00
2022-11-01T23:28:06.072Z,0.00
2022-11-01T23:29:06.036Z,0.07
2022-11-01T23:30:06.036Z,0.07
2022-11-01T23:31:06.052Z,0.00
2022-11-01T23:32:06.089Z,0.10
2022-11-01T23:33:06.402Z,0.00
2022-11-01T23:34:05.971Z,0.00
2022-11-01T23:35:06.011Z,0.00
2022-11-01T23:36:05.948Z,0.10
2022-11-01T23:37:06.123Z,0.07
2022-11-01T23:38:05.959Z,0.07
2022-11-01T23:39:05.930Z,0.07
2022-11-01T23:40:05.927Z,0.00
2022-11-01T23:41:05.921Z,0.07
2022-11-01T23:42:05.889Z,0.07
2022-11-01T23:43:06.152Z,0.00
2022-11-01T23:44:05.859Z,0.00
2022-11-01T23:45:05.853Z,0.00
2022-11-01T23:46:05.834Z,0.00
2022-11-01T23:47:05.844Z,0.00
2022-11-01T23:48:05.817Z,0.17
2022-11-01T23:49:05.807Z,0.00
2022-11-01T23:50:05.775Z,0.00
2022-11-01T23:51:05.756Z,0.17
2022-11-01T23:52:05.761Z,0.00
2022-11-01T23:53:06.190Z,0.10
2022-11-01T23:54:05.747Z,0.07
2022-11-01T23:55:05.742Z,0.07
2022-11-01T23:56:05.802Z,0.00
2022-11-01T23:57:05.733Z,0.10
2022-11-01T23:58:05.711Z,0.00
2022-11-01T23:59:05.745Z,0.17
